Richards, Texas
Current Conditions -  °F | °C
As of 8:53 AM on Wednesday 22 Oct 2014 (Local Time) from KUTS Reporting Station
Haze Haze  
Wind Chill: 62°   Ceiling: Unl
Heat Index: 62°   Visibility: 4mi
Dew Point: 60°   Wind: 3mph
Humidity: 93%   Direction: 70°ENE
Pressure: 30.12"   Gusts: NA
Location:  30.54°N, 95.84°W
Report Text: KUTS 221353Z AUTO 07003KT 4SM BR FEW003 17/16 A3012 RMK AO2 SLP196 T01670156
Loading
Personal Weather Stations






























Interactive Weather Map New forecast layout! Learn more

10-Day Weather Forecast

Advertisements
Track Severe Weather on mobile